createdAt,value
2023-04-03T00:00:44.512Z,1.40
2023-04-03T00:03:14.778Z,2.87
2023-04-03T00:06:00.087Z,1.67
2023-04-03T00:09:03.503Z,1.73
2023-04-03T00:14:53.077Z,1.87
2023-04-03T00:18:44.974Z,2.87
2023-04-03T00:21:43.694Z,4.27
2023-04-03T00:24:47.035Z,5.23
2023-04-03T00:27:50.319Z,1.80
2023-04-03T00:30:45.545Z,4.07
2023-04-03T00:38:05.112Z,2.93
2023-04-03T00:46:06.422Z,3.00
2023-04-03T00:53:27.194Z,3.03
2023-04-03T00:56:05.580Z,3.73
2023-04-03T00:59:13.260Z,3.43
2023-04-03T01:01:53.409Z,3.23
2023-04-03T01:06:22.552Z,3.90
2023-04-03T01:13:38.434Z,4.13
2023-04-03T01:16:19.446Z,2.73
2023-04-03T01:19:00.808Z,4.50
2023-04-03T01:22:40.134Z,5.33
2023-04-03T01:26:01.249Z,3.57
2023-04-03T01:28:43.063Z,2.37
2023-04-03T01:31:40.144Z,4.80
2023-04-03T01:35:02.536Z,4.27
2023-04-03T01:38:02.081Z,5.70
2023-04-03T01:40:43.529Z,3.07
2023-04-03T01:47:05.166Z,4.53
2023-04-03T01:50:17.070Z,3.53
2023-04-03T01:53:12.608Z,2.97
2023-04-03T01:55:52.970Z,3.50
2023-04-03T01:58:44.064Z,5.40
2023-04-03T02:01:14.852Z,4.97
2023-04-03T02:03:55.691Z,6.30
2023-04-03T02:07:09.738Z,3.87
2023-04-03T02:09:53.158Z,5.17
2023-04-03T02:13:36.491Z,5.00
2023-04-03T02:16:36.959Z,3.93
2023-04-03T02:19:14.438Z,6.73
2023-04-03T02:21:51.868Z,4.20
2023-04-03T02:25:16.436Z,5.07
2023-04-03T02:28:46.727Z,4.23
2023-04-03T02:31:42.661Z,4.90
2023-04-03T02:35:07.347Z,6.87
2023-04-03T02:39:19.960Z,6.13
2023-04-03T02:43:16.092Z,3.97
2023-04-03T02:46:46.740Z,4.77
2023-04-03T02:49:29.346Z,6.03
2023-04-03T02:53:47.200Z,6.33
2023-04-03T02:57:43.678Z,4.47
2023-04-03T03:29:06.227Z,5.37
2023-04-03T03:31:51.594Z,5.93
2023-04-03T03:34:30.439Z,6.20
2023-04-03T03:37:18.660Z,5.60
2023-04-03T03:39:50.681Z,5.23
2023-04-03T03:43:48.401Z,4.97
2023-04-03T03:46:44.733Z,9.70
2023-04-03T03:49:48.912Z,5.93
2023-04-03T03:52:49.293Z,6.40
2023-04-03T03:55:50.522Z,4.10
2023-04-03T03:58:46.383Z,6.37
2023-04-03T04:01:19.607Z,4.77
2023-04-03T04:03:59.769Z,5.30
2023-04-03T04:06:38.578Z,8.33
2023-04-03T04:09:20.582Z,6.47
2023-04-03T04:11:55.336Z,5.27
2023-04-03T04:15:06.596Z,6.53
2023-04-03T04:18:16.349Z,7.57
2023-04-03T04:21:12.772Z,7.40
2023-04-03T04:27:20.060Z,7.77
2023-04-03T04:29:54.614Z,10.07
2023-04-03T04:33:20.132Z,8.57
2023-04-03T04:37:07.221Z,7.20
2023-04-03T04:39:42.049Z,8.87
2023-04-03T04:42:41.993Z,8.20
2023-04-03T04:45:14.668Z,8.80
2023-04-03T04:53:19.841Z,9.03
2023-04-03T05:04:53.308Z,8.90
2023-04-03T05:07:31.754Z,9.20
2023-04-03T05:12:46.137Z,8.87
2023-04-03T05:16:33.015Z,9.43
2023-04-03T05:19:07.696Z,7.57
2023-04-03T05:22:05.310Z,8.63
2023-04-03T05:24:34.768Z,9.90
2023-04-03T05:27:05.621Z,9.93
2023-04-03T05:29:50.573Z,9.00
2023-04-03T05:32:19.797Z,8.47
2023-04-03T05:34:49.877Z,7.60
2023-04-03T05:37:22.022Z,8.27
2023-04-03T05:39:51.605Z,9.13
2023-04-03T05:42:30.912Z,10.23
2023-04-03T05:45:00.220Z,8.47
2023-04-03T05:47:33.167Z,7.90
2023-04-03T05:50:03.023Z,7.93
2023-04-03T05:52:41.938Z,10.27
2023-04-03T05:55:42.661Z,8.80
2023-04-03T05:58:15.350Z,10.07
2023-04-03T06:00:45.535Z,9.50
2023-04-03T06:06:01.375Z,7.03
2023-04-03T06:08:35.363Z,5.10
2023-04-03T06:11:08.067Z,7.07
2023-04-03T06:13:38.545Z,5.50
2023-04-03T06:16:08.283Z,8.00
2023-04-03T06:18:37.927Z,5.73
2023-04-03T06:21:08.840Z,11.90
2023-04-03T06:23:39.765Z,9.30
2023-04-03T06:26:08.340Z,7.83
2023-04-03T06:28:38.129Z,6.23
2023-04-03T06:31:07.503Z,8.17
2023-04-03T06:33:37.834Z,9.83
2023-04-03T06:36:09.400Z,6.60
2023-04-03T06:38:46.196Z,10.53
2023-04-03T06:41:15.203Z,8.67
2023-04-03T06:43:44.545Z,11.07
2023-04-03T06:46:19.266Z,8.67
2023-04-03T06:48:48.645Z,8.77
2023-04-03T06:51:28.902Z,9.53
2023-04-03T06:54:02.600Z,8.37
2023-04-03T06:56:44.996Z,11.23
2023-04-03T06:59:16.189Z,6.77
2023-04-03T07:01:45.343Z,7.30
2023-04-03T07:04:14.599Z,8.27
2023-04-03T07:06:44.689Z,3.70
2023-04-03T07:09:15.258Z,7.83
2023-04-03T07:12:00.118Z,9.23
2023-04-03T07:14:30.624Z,7.33
2023-04-03T07:17:01.211Z,10.33
2023-04-03T07:19:50.800Z,7.97
2023-04-03T07:22:20.181Z,7.77
2023-04-03T07:24:53.189Z,7.70
2023-04-03T07:27:23.960Z,5.80
2023-04-03T07:29:56.621Z,5.87
2023-04-03T07:32:48.309Z,12.80
2023-04-03T07:35:18.510Z,6.13
2023-04-03T07:37:48.061Z,7.67
2023-04-03T07:40:20.376Z,6.80
2023-04-03T07:42:57.377Z,5.47
2023-04-03T07:45:38.786Z,10.63
2023-04-03T07:48:08.262Z,7.67
2023-04-03T07:50:49.000Z,6.30
2023-04-03T07:53:18.883Z,6.33
2023-04-03T07:55:53.354Z,6.10
2023-04-03T07:58:31.381Z,5.77
2023-04-03T08:01:02.118Z,7.03
2023-04-03T08:03:33.629Z,5.63
2023-04-03T08:06:15.763Z,7.57
2023-04-03T08:08:47.065Z,4.73
2023-04-03T08:11:21.632Z,5.63
2023-04-03T08:13:53.646Z,7.57
2023-04-03T08:16:30.315Z,5.07
2023-04-03T08:19:02.616Z,5.67
2023-04-03T08:21:34.690Z,6.97
2023-04-03T08:24:06.057Z,5.97
2023-04-03T08:26:38.540Z,4.50
2023-04-03T08:29:09.506Z,5.87
2023-04-03T08:31:39.399Z,5.47
2023-04-03T08:34:10.753Z,5.57
2023-04-03T08:36:41.249Z,4.83
2023-04-03T08:39:20.413Z,5.13
2023-04-03T08:41:54.076Z,4.03
2023-04-03T08:44:43.653Z,5.57
2023-04-03T08:47:40.646Z,4.90
2023-04-03T08:50:16.960Z,4.20
2023-04-03T08:52:53.273Z,5.33
2023-04-03T08:55:30.319Z,6.57
2023-04-03T08:58:08.027Z,6.57
2023-04-03T09:00:49.155Z,7.00
2023-04-03T09:03:22.532Z,4.00
2023-04-03T09:05:59.780Z,3.00
2023-04-03T09:08:33.060Z,4.17
2023-04-03T09:11:19.810Z,4.03
2023-04-03T09:14:00.989Z,3.67
2023-04-03T09:16:42.734Z,4.13
2023-04-03T09:19:29.668Z,2.93
2023-04-03T09:22:01.339Z,3.13
2023-04-03T09:24:35.263Z,3.63
2023-04-03T09:27:12.273Z,2.53
2023-04-03T09:29:49.038Z,2.83
2023-04-03T09:32:31.383Z,4.33
2023-04-03T09:35:18.916Z,2.80
2023-04-03T09:37:57.117Z,2.63
2023-04-03T09:40:40.233Z,3.03
2023-04-03T09:43:32.152Z,2.93
2023-04-03T09:46:29.199Z,3.73
2023-04-03T09:49:12.470Z,2.37
2023-04-03T09:51:42.240Z,4.83
2023-04-03T09:54:42.360Z,3.27
2023-04-03T09:57:29.689Z,2.57
2023-04-03T10:00:14.692Z,2.40
2023-04-03T10:02:45.987Z,2.60
2023-04-03T10:05:35.371Z,2.77
2023-04-03T10:08:27.585Z,1.77
2023-04-03T10:11:17.590Z,2.47
2023-04-03T10:14:10.079Z,2.97
2023-04-03T10:16:55.244Z,2.13
2023-04-03T10:19:42.503Z,1.37
2023-04-03T10:22:25.718Z,2.47
2023-04-03T10:25:23.720Z,2.10
2023-04-03T10:28:14.549Z,3.63
2023-04-03T10:30:57.688Z,4.13
2023-04-03T10:33:45.780Z,3.40
2023-04-03T10:36:32.388Z,3.73
2023-04-03T10:39:14.897Z,2.70
2023-04-03T10:42:16.021Z,1.60
2023-04-03T10:45:13.662Z,2.80
2023-04-03T10:47:50.476Z,3.20
2023-04-03T10:50:41.001Z,2.17
2023-04-03T10:53:27.947Z,2.17
2023-04-03T10:56:08.479Z,2.97
2023-04-03T10:58:46.999Z,2.07
2023-04-03T11:01:23.459Z,1.60
2023-04-03T11:03:59.934Z,2.17
2023-04-03T11:06:41.543Z,2.07
2023-04-03T11:09:34.530Z,2.20
2023-04-03T11:12:09.471Z,2.03
2023-04-03T11:14:41.683Z,1.87
2023-04-03T11:17:34.338Z,1.30
2023-04-03T11:20:13.695Z,1.77
2023-04-03T11:22:46.848Z,2.07
2023-04-03T11:25:31.868Z,2.80
2023-04-03T11:28:05.095Z,1.80
2023-04-03T11:30:53.526Z,3.63
2023-04-03T11:33:47.306Z,3.80
2023-04-03T11:36:30.285Z,2.87
2023-04-03T11:39:21.202Z,2.40
2023-04-03T11:42:34.945Z,2.00
2023-04-03T11:45:37.241Z,1.73
2023-04-03T11:48:21.200Z,2.87
2023-04-03T11:51:04.579Z,2.13
2023-04-03T11:53:40.261Z,1.70
2023-04-03T11:56:33.418Z,1.87
2023-04-03T11:59:40.580Z,2.10
2023-04-03T12:05:31.682Z,2.33
2023-04-03T12:08:29.190Z,2.87
2023-04-03T12:11:31.483Z,3.10
2023-04-03T12:14:18.077Z,2.57
2023-04-03T12:17:02.937Z,1.70
2023-04-03T12:19:45.754Z,2.83
2023-04-03T12:22:22.764Z,2.23
2023-04-03T12:24:56.158Z,4.57
2023-04-03T12:27:36.147Z,2.67
2023-04-03T12:30:18.282Z,3.90
2023-04-03T12:33:24.158Z,2.93
2023-04-03T12:36:08.430Z,2.73
2023-04-03T12:39:03.761Z,2.30
2023-04-03T12:41:41.422Z,1.83
2023-04-03T12:44:39.471Z,3.40
2023-04-03T12:47:28.857Z,2.40
2023-04-03T12:50:02.852Z,2.13
2023-04-03T12:52:43.117Z,2.07
2023-04-03T12:55:20.363Z,2.00
2023-04-03T12:57:51.644Z,1.63
2023-04-03T13:00:35.336Z,2.00
2023-04-03T13:03:23.024Z,1.60
2023-04-03T13:05:58.488Z,4.00
2023-04-03T13:08:29.916Z,2.20
2023-04-03T13:11:04.635Z,3.42
2023-04-03T13:13:33.539Z,3.05
2023-04-03T13:16:15.178Z,1.88
2023-04-03T13:18:44.780Z,1.98
2023-04-03T13:21:24.370Z,1.35
2023-04-03T13:24:11.495Z,2.58
2023-04-03T13:26:45.094Z,2.65
2023-04-03T13:29:31.306Z,3.30
2023-04-03T13:32:17.062Z,2.25
2023-04-03T13:34:47.732Z,3.38
2023-04-03T13:37:30.406Z,2.03
2023-04-03T13:40:12.210Z,2.22
2023-04-03T13:42:44.730Z,1.20
2023-04-03T13:45:28.738Z,1.83
2023-04-03T13:48:23.394Z,4.18
2023-04-03T13:51:21.499Z,1.58
2023-04-03T13:54:08.891Z,1.70
2023-04-03T13:56:43.957Z,2.13
2023-04-03T13:59:31.180Z,2.40
2023-04-03T14:02:20.104Z,1.88
2023-04-03T14:04:59.948Z,1.33
2023-04-03T14:07:32.362Z,1.85
2023-04-03T14:10:12.641Z,2.22
2023-04-03T14:12:42.683Z,2.17
2023-04-03T14:15:23.240Z,1.48
2023-04-03T14:18:26.257Z,2.63
2023-04-03T14:20:58.589Z,1.67
2023-04-03T14:23:32.034Z,1.83
2023-04-03T14:26:14.960Z,2.33
2023-04-03T14:28:45.356Z,2.20
2023-04-03T14:31:17.686Z,1.95
2023-04-03T14:34:14.350Z,1.73
2023-04-03T14:36:47.998Z,2.75
2023-04-03T14:39:22.381Z,2.22
2023-04-03T14:41:56.038Z,2.28
2023-04-03T14:44:28.219Z,2.28
2023-04-03T14:46:59.741Z,2.63
2023-04-03T14:49:32.127Z,3.42
2023-04-03T14:52:02.077Z,1.38
2023-04-03T14:54:32.813Z,1.75
2023-04-03T14:57:05.454Z,1.50
2023-04-03T14:59:35.043Z,1.63
2023-04-03T15:02:08.411Z,1.63
2023-04-03T15:04:37.706Z,2.40
2023-04-03T15:07:08.581Z,2.00
2023-04-03T15:09:39.221Z,2.40
2023-04-03T15:12:15.646Z,1.67
2023-04-03T15:14:52.421Z,2.97
2023-04-03T15:17:30.180Z,2.95
2023-04-03T15:20:02.006Z,1.88
2023-04-03T15:22:32.323Z,2.78
2023-04-03T15:25:03.154Z,2.67
2023-04-03T15:27:34.823Z,3.60
2023-04-03T15:30:08.076Z,1.60
2023-04-03T15:32:38.102Z,2.78
2023-04-03T15:35:09.539Z,2.50
2023-04-03T15:37:39.928Z,1.42
2023-04-03T15:40:10.587Z,1.95
2023-04-03T15:42:45.674Z,1.92
2023-04-03T15:45:15.919Z,2.42
2023-04-03T15:47:45.531Z,1.45
2023-04-03T15:50:16.821Z,2.00
2023-04-03T15:52:46.847Z,1.73
2023-04-03T15:55:16.948Z,1.60
2023-04-03T15:58:32.441Z,1.20
2023-04-03T16:01:04.921Z,1.05
2023-04-03T16:03:35.191Z,1.63
2023-04-03T16:06:11.323Z,1.42
2023-04-03T16:08:41.395Z,2.25
2023-04-03T16:11:11.976Z,2.45
2023-04-03T16:13:43.438Z,3.28
2023-04-03T16:16:13.341Z,1.45
2023-04-03T16:18:43.032Z,1.35
2023-04-03T16:21:12.726Z,1.83
2023-04-03T16:23:47.808Z,1.75
2023-04-03T16:26:19.152Z,1.63
2023-04-03T16:29:01.519Z,1.73
2023-04-03T16:31:31.484Z,2.10
2023-04-03T16:34:02.312Z,1.35
2023-04-03T16:36:32.864Z,1.85
2023-04-03T16:39:14.324Z,1.23
2023-04-03T16:41:44.900Z,2.35
2023-04-03T16:44:16.653Z,1.63
2023-04-03T16:46:47.844Z,2.38
2023-04-03T16:49:20.412Z,1.73
2023-04-03T16:51:53.895Z,1.25
2023-04-03T16:54:42.137Z,1.25
2023-04-03T16:57:13.118Z,2.35
2023-04-03T16:59:45.861Z,1.40
2023-04-03T17:02:16.385Z,1.55
2023-04-03T17:04:59.428Z,1.48
2023-04-03T17:07:32.030Z,1.98
2023-04-03T17:10:09.057Z,2.63
2023-04-03T17:12:40.699Z,2.30
2023-04-03T17:15:13.558Z,1.92
2023-04-03T17:17:45.249Z,3.17
2023-04-03T17:20:18.101Z,2.58
2023-04-03T17:22:47.936Z,1.55
2023-04-03T17:25:35.348Z,1.65
2023-04-03T17:28:05.194Z,2.15
2023-04-03T17:30:38.571Z,3.55
2023-04-03T17:33:10.023Z,1.58
2023-04-03T17:35:40.217Z,1.67
2023-04-03T17:38:11.545Z,1.52
2023-04-03T17:40:43.566Z,1.93
2023-04-03T17:43:27.516Z,1.10
2023-04-03T17:46:06.059Z,1.10
2023-04-03T17:48:36.516Z,2.60
2023-04-03T17:51:16.641Z,2.03
2023-04-03T17:53:46.217Z,2.13
2023-04-03T17:56:35.176Z,1.60
2023-04-03T17:59:12.074Z,3.17
2023-04-03T18:01:47.894Z,1.53
2023-04-03T18:04:24.314Z,2.07
2023-04-03T18:06:58.453Z,2.70
2023-04-03T18:09:33.355Z,2.57
2023-04-03T18:12:35.882Z,2.80
2023-04-03T18:15:24.510Z,2.43
2023-04-03T18:17:58.704Z,1.83
2023-04-03T18:20:33.855Z,2.63
2023-04-03T18:23:04.275Z,1.73
2023-04-03T18:25:36.735Z,3.07
2023-04-03T18:28:07.385Z,2.10
2023-04-03T18:30:46.085Z,2.97
2023-04-03T18:33:16.631Z,1.93
2023-04-03T18:35:46.647Z,2.87
2023-04-03T18:38:16.462Z,2.80
2023-04-03T18:40:47.699Z,2.20
2023-04-03T18:43:17.641Z,2.17
2023-04-03T18:45:48.856Z,2.13
2023-04-03T18:48:24.441Z,1.97
2023-04-03T18:50:56.639Z,2.43
2023-04-03T18:53:48.024Z,3.27
2023-04-03T18:56:17.162Z,2.70
2023-04-03T18:58:46.892Z,3.00
2023-04-03T19:01:17.522Z,3.30
2023-04-03T19:03:52.848Z,3.27
2023-04-03T19:06:25.986Z,4.10
2023-04-03T19:09:12.597Z,3.23
2023-04-03T19:11:42.729Z,3.33
2023-04-03T19:14:16.812Z,4.40
2023-04-03T19:16:48.286Z,4.23
2023-04-03T19:19:33.533Z,2.83
2023-04-03T19:22:02.808Z,1.80
2023-04-03T19:24:39.608Z,3.40
2023-04-03T19:27:08.776Z,2.67
2023-04-03T19:29:39.002Z,3.73
2023-04-03T19:32:10.762Z,3.57
2023-04-03T19:34:43.574Z,3.50
2023-04-03T19:37:17.954Z,4.27
2023-04-03T19:39:48.010Z,3.03
2023-04-03T19:42:17.769Z,4.30
2023-04-03T19:44:58.423Z,4.27
2023-04-03T19:47:30.508Z,3.37
2023-04-03T19:50:02.965Z,3.23
2023-04-03T19:52:32.864Z,3.87
2023-04-03T19:55:03.238Z,3.20
2023-04-03T19:57:33.687Z,3.30
2023-04-03T20:00:09.455Z,5.30
2023-04-03T20:02:38.851Z,5.00
2023-04-03T20:05:14.584Z,2.10
2023-04-03T20:07:43.929Z,4.10
2023-04-03T20:10:14.202Z,2.77
2023-04-03T20:12:43.732Z,3.00
2023-04-03T20:15:21.352Z,2.67
2023-04-03T20:17:55.867Z,4.07
2023-04-03T20:20:42.375Z,5.30
2023-04-03T20:23:13.081Z,4.60
2023-04-03T20:26:09.410Z,4.37
2023-04-03T20:28:44.122Z,4.57
2023-04-03T20:31:13.824Z,5.10
2023-04-03T20:33:45.735Z,4.30
2023-04-03T20:36:20.070Z,4.83
2023-04-03T20:38:55.904Z,3.70
2023-04-03T20:41:29.409Z,5.70
2023-04-03T20:44:00.868Z,3.30
2023-04-03T20:46:53.111Z,3.63
2023-04-03T20:49:41.092Z,4.33
2023-04-03T20:52:12.397Z,4.97
2023-04-03T20:54:41.824Z,3.60
2023-04-03T20:57:11.490Z,7.20
2023-04-03T20:59:42.415Z,3.40
2023-04-03T21:02:13.155Z,5.00
2023-04-03T21:04:49.526Z,5.63
2023-04-03T21:08:16.660Z,3.10
2023-04-03T21:11:42.429Z,6.47
2023-04-03T21:15:07.275Z,4.70
2023-04-03T21:17:37.493Z,4.30
2023-04-03T21:20:08.949Z,5.17
2023-04-03T21:22:44.999Z,7.93
2023-04-03T21:25:16.790Z,7.60
2023-04-03T21:27:46.500Z,10.03
2023-04-03T21:30:30.401Z,9.83
2023-04-03T21:33:02.193Z,9.13
2023-04-03T21:35:34.120Z,6.43
2023-04-03T21:38:29.743Z,5.87
2023-04-03T21:41:00.754Z,6.60
2023-04-03T21:43:31.613Z,7.43
2023-04-03T21:46:02.312Z,5.60
2023-04-03T21:48:31.999Z,4.83
2023-04-03T21:51:09.631Z,7.97
2023-04-03T21:53:47.666Z,5.73
2023-04-03T21:56:17.494Z,5.13
2023-04-03T21:58:48.307Z,7.27
2023-04-03T22:01:19.525Z,5.63
2023-04-03T22:03:49.623Z,7.17
2023-04-03T22:06:22.280Z,6.53
2023-04-03T22:08:52.937Z,7.53
2023-04-03T22:11:26.480Z,5.53
2023-04-03T22:13:58.486Z,7.63
2023-04-03T22:16:30.355Z,7.30
2023-04-03T22:19:01.681Z,6.00
2023-04-03T22:21:34.863Z,6.57
2023-04-03T22:24:05.051Z,8.27
2023-04-03T22:26:35.045Z,5.33
2023-04-03T22:29:16.415Z,6.53
2023-04-03T22:31:46.198Z,7.57
2023-04-03T22:34:17.146Z,6.53
2023-04-03T22:36:58.779Z,6.37
2023-04-03T22:39:30.869Z,6.87
2023-04-03T22:42:02.047Z,6.60
2023-04-03T22:44:36.270Z,7.10
2023-04-03T22:47:07.718Z,4.73
2023-04-03T22:49:39.449Z,6.73
2023-04-03T22:52:12.258Z,6.63
2023-04-03T22:54:52.416Z,7.43
2023-04-03T22:57:28.656Z,6.27
2023-04-03T23:00:01.783Z,7.70
2023-04-03T23:02:36.721Z,9.97
2023-04-03T23:05:08.578Z,12.67
2023-04-03T23:08:05.817Z,10.23
2023-04-03T23:10:35.272Z,10.20
2023-04-03T23:13:04.923Z,10.17
2023-04-03T23:15:34.903Z,6.30
2023-04-03T23:18:03.928Z,7.27
2023-04-03T23:20:32.958Z,12.30
2023-04-03T23:23:06.297Z,11.77
2023-04-03T23:25:38.597Z,10.23
2023-04-03T23:28:09.174Z,9.47
2023-04-03T23:30:40.220Z,9.10
2023-04-03T23:33:10.412Z,7.10
2023-04-03T23:35:46.842Z,10.57
2023-04-03T23:38:18.395Z,6.67
2023-04-03T23:40:49.207Z,8.93
2023-04-03T23:43:18.767Z,8.60
2023-04-03T23:45:48.468Z,12.60
2023-04-03T23:48:18.589Z,6.47
2023-04-03T23:50:48.773Z,9.00
2023-04-03T23:53:19.642Z,7.67
2023-04-03T23:55:49.757Z,8.50
2023-04-03T23:58:19.476Z,8.57
